Time;durP1;ratioP1;P1;durP2;ratioP2;P2;SDS_P1;SDS_P2;PMS_P1;PMS_P2;Temp;Humidity;BMP_temperature;BMP_pressure;BME280_temperature;BME280_humidity;BME280_pressure;Samples;Min_cycle;Max_cycle;Signal;HPM_P1;HPM_P2
2023/03/22 00:01:21;;;;;;;1.17;0.88;;;;;;;8.21;100.00;99817.88;6121367;23;20471;-87
2023/03/22 00:03:48;;;;;;;0.70;0.70;;;;;;;8.15;100.00;99827.88;6120735;23;20013;-87
2023/03/22 00:06:15;;;;;;;0.75;0.73;;;;;;;8.13;100.00;99822.00;6120283;23;20010;-87
2023/03/22 00:08:41;;;;;;;0.45;0.45;;;;;;;8.19;100.00;99836.88;6120514;23;20014;-87
2023/03/22 00:11:06;;;;;;;0.70;0.70;;;;;;;8.19;100.00;99836.88;6120628;23;20466;-87
2023/03/22 00:13:33;;;;;;;0.98;0.95;;;;;;;8.12;100.00;99831.50;6144791;23;20354;-88
2023/03/22 00:16:01;;;;;;;2.47;1.50;;;;;;;8.03;100.00;99823.00;6144396;23;20010;-88
2023/03/22 00:18:27;;;;;;;0.47;0.47;;;;;;;8.16;100.00;99826.69;6120304;23;20009;-87
2023/03/22 00:20:55;;;;;;;0.25;0.25;;;;;;;8.16;100.00;99829.44;6094391;23;20020;-87
2023/03/22 00:23:21;;;;;;;0.45;0.43;;;;;;;8.02;100.00;99813.16;6094238;23;20049;-87
2023/03/22 00:25:46;;;;;;;0.85;0.85;;;;;;;7.93;100.00;99823.97;6120441;23;20018;-87
2023/03/22 00:28:13;;;;;;;0.60;0.60;;;;;;;7.98;100.00;99832.56;6120510;23;20021;-87
2023/03/22 00:30:39;;;;;;;0.28;0.28;;;;;;;7.96;100.00;99820.38;6143245;23;20121;-87
2023/03/22 00:33:05;;;;;;;0.10;0.10;;;;;;;7.94;100.00;99825.53;6118767;23;20057;-88
2023/03/22 00:35:30;;;;;;;0.30;0.30;;;;;;;7.89;100.00;99823.25;6094452;23;20017;-87
2023/03/22 00:38:04;;;;;;;0.85;0.63;;;;;;;7.85;100.00;99817.03;6070714;23;20512;-87
2023/03/22 00:40:32;;;;;;;0.10;0.10;;;;;;;7.71;100.00;99817.31;6121847;23;20411;-88
2023/03/22 00:42:58;;;;;;;0.35;0.35;;;;;;;7.82;100.00;99818.66;6143177;23;20017;-87
2023/03/22 00:45:24;;;;;;;0.00;0.00;;;;;;;7.87;100.00;99817.41;6094097;23;20145;-87
2023/03/22 00:47:49;;;;;;;0.20;0.20;;;;;;;7.85;100.00;99805.97;6118163;23;20018;-88
2023/03/22 00:50:17;;;;;;;0.80;0.70;;;;;;;7.86;100.00;99807.53;6096024;23;20064;-87
2023/03/22 00:52:42;;;;;;;0.32;0.32;;;;;;;7.92;100.00;99811.38;6119682;23;20104;-87
2023/03/22 00:55:08;;;;;;;0.20;0.20;;;;;;;7.91;100.00;99799.56;6120036;23;20421;-88
2023/03/22 00:57:34;;;;;;;1.02;0.50;;;;;;;7.89;100.00;99795.66;6116531;23;20096;-87
2023/03/22 01:00:08;;;;;;;0.38;0.38;;;;;;;7.88;100.00;99799.63;6119235;23;20025;-87
2023/03/22 01:02:34;;;;;;;1.05;0.57;;;;;;;7.87;100.00;99800.81;6117801;23;20509;-88
2023/03/22 01:04:59;;;;;;;0.32;0.20;;;;;;;7.83;100.00;99795.38;6143995;23;20010;-87
2023/03/22 01:07:25;;;;;;;0.77;0.77;;;;;;;7.69;100.00;99792.09;6120910;23;20010;-87
2023/03/22 01:09:51;;;;;;;0.00;0.00;;;;;;;7.61;100.00;99798.94;6144724;23;20069;-88
2023/03/22 01:12:17;;;;;;;1.55;1.27;;;;;;;7.61;100.00;99804.47;6120547;23;20014;-87
2023/03/22 01:14:43;;;;;;;4.97;0.85;;;;;;;7.58;100.00;99788.75;6122760;23;20006;-88
2023/03/22 01:17:09;;;;;;;1.48;0.85;;;;;;;7.58;100.00;99794.28;6118108;23;20018;-87
2023/03/22 01:19:36;;;;;;;0.73;0.30;;;;;;;7.58;100.00;99797.03;6096151;23;20458;-88
2023/03/22 01:22:03;;;;;;;2.58;1.85;;;;;;;7.49;100.00;99792.84;6144259;23;20014;-87
2023/03/22 01:24:29;;;;;;;0.00;0.00;;;;;;;7.35;100.00;99795.88;6096382;23;20014;-88
2023/03/22 01:26:55;;;;;;;0.75;0.75;;;;;;;7.41;100.00;99798.91;6117969;23;20044;-87
2023/03/22 01:29:21;;;;;;;5.57;1.73;;;;;;;7.28;100.00;99784.94;6096842;23;20085;-87
2023/03/22 01:31:46;;;;;;;4.30;1.10;;;;;;;7.31;100.00;99789.63;6143702;23;20040;-88
2023/03/22 01:34:13;;;;;;;0.95;0.77;;;;;;;7.28;100.00;99778.66;6119735;23;20350;-88
2023/03/22 01:36:39;;;;;;;0.00;0.00;;;;;;;7.38;100.00;99795.03;6119789;23;20549;-87
2023/03/22 01:39:04;;;;;;;2.15;0.98;;;;;;;7.41;100.00;99799.69;6119504;23;20059;-87
2023/03/22 01:41:33;;;;;;;0.00;0.00;;;;;;;7.40;100.00;99770.53;6144154;23;20030;-87
2023/03/22 01:44:18;;;;;;;0.77;0.40;;;;;;;7.46;100.00;99795.69;6120686;23;20018;-87
2023/03/22 01:46:46;;;;;;;0.00;0.00;;;;;;;7.47;100.00;99777.94;6118549;23;20017;-87
2023/03/22 01:49:17;;;;;;;0.47;0.47;;;;;;;7.44;100.00;99762.22;6145762;23;20017;-87
2023/03/22 01:51:45;;;;;;;0.20;0.20;;;;;;;7.40;100.00;99778.81;6145027;23;20100;-87
2023/03/22 01:54:24;;;;;;;0.40;0.30;;;;;;;7.32;100.00;99769.09;6121774;23;20002;-87
2023/03/22 01:56:50;;;;;;;0.45;0.45;;;;;;;7.39;100.00;99773.75;6097128;23;20036;-87
2023/03/22 01:59:26;;;;;;;3.00;0.95;;;;;;;7.32;100.00;99776.63;6146120;23;20105;-87
2023/03/22 02:02:19;;;;;;;8.57;2.72;;;;;;;7.21;100.00;99785.06;6119453;23;20401;-87
2023/03/22 02:04:56;;;;;;;0.45;0.45;;;;;;;7.08;100.00;99778.59;6121284;23;20442;-86
2023/03/22 02:07:26;;;;;;;0.08;0.08;;;;;;;7.11;100.00;99786.03;6119235;23;20014;-87
2023/03/22 02:09:54;;;;;;;0.20;0.20;;;;;;;7.15;100.00;99803.31;6119993;23;20018;-87
2023/03/22 02:12:41;;;;;;;1.23;0.28;;;;;;;7.10;100.00;99801.03;6117819;23;20495;-88
2023/03/22 02:15:42;;;;;;;0.52;0.38;;;;;;;7.07;100.00;99785.31;6143826;23;20441;-87
2023/03/22 02:19:12;;;;;;;0.55;0.55;;;;;;;7.08;100.00;99792.38;6137829;23;20454;-88
2023/03/22 02:22:26;;;;;;;0.10;0.10;;;;;;;7.07;100.00;99796.34;6091964;23;20069;-88
2023/03/22 02:25:02;;;;;;;0.50;0.50;;;;;;;7.10;100.00;99790.00;6094624;23;20057;-87
2023/03/22 02:27:45;;;;;;;0.03;0.03;;;;;;;7.13;100.00;99800.19;6117762;23;20105;-87
2023/03/22 02:30:42;;;;;;;0.10;0.10;;;;;;;7.17;100.00;99800.13;6094402;23;20026;-87
2023/03/22 02:33:35;;;;;;;1.63;1.13;;;;;;;7.18;100.00;99799.72;6144312;23;20476;-87
2023/03/22 02:36:29;;;;;;;0.22;0.22;;;;;;;7.21;100.00;99793.34;6143499;23;20029;-88
2023/03/22 02:39:17;;;;;;;0.45;0.45;;;;;;;7.25;100.00;99791.31;6096177;23;20041;-87
2023/03/22 02:41:54;;;;;;;0.28;0.28;;;;;;;7.20;100.00;99800.06;6122649;23;20293;-87
2023/03/22 02:44:52;;;;;;;0.05;0.05;;;;;;;7.18;100.00;99788.69;6121099;23;20028;-87
2023/03/22 02:47:23;;;;;;;0.13;0.13;;;;;;;7.08;100.00;99781.34;6110901;23;20026;-87
2023/03/22 02:49:58;;;;;;;0.35;0.35;;;;;;;7.15;100.00;99786.75;6119788;23;20029;-87
2023/03/22 02:52:50;;;;;;;0.25;0.25;;;;;;;7.16;100.00;99799.34;6144788;23;20026;-88
2023/03/22 02:55:22;;;;;;;0.43;0.40;;;;;;;7.13;100.00;99800.19;6118863;23;20459;-87
2023/03/22 02:57:53;;;;;;;0.95;0.88;;;;;;;7.12;100.00;99793.09;6120681;23;20018;-87
2023/03/22 03:00:18;;;;;;;0.00;0.00;;;;;;;7.06;100.00;99789.28;6094025;23;20022;-88
2023/03/22 03:02:50;;;;;;;0.50;0.50;;;;;;;7.03;100.00;99776.34;6143207;23;20018;-87
2023/03/22 03:05:17;;;;;;;0.40;0.40;;;;;;;7.07;100.00;99790.06;6094698;23;20089;-87
2023/03/22 03:07:49;;;;;;;0.63;0.63;;;;;;;6.93;100.00;99791.06;6118842;23;20020;-87
2023/03/22 03:10:16;;;;;;;0.00;0.00;;;;;;;6.91;100.00;99788.75;6095354;23;20021;-88
2023/03/22 03:12:42;;;;;;;1.02;0.90;;;;;;;6.89;100.00;99796.63;6142427;23;20014;-87
2023/03/22 03:15:12;;;;;;;0.60;0.30;;;;;;;6.76;100.00;99792.09;6144296;23;20068;-88
2023/03/22 03:17:53;;;;;;;0.17;0.17;;;;;;;6.76;100.00;99803.91;6118948;23;20346;-87
2023/03/22 03:20:33;;;;;;;0.63;0.45;;;;;;;6.76;100.00;99803.91;6141644;23;20028;-87
2023/03/22 03:23:12;;;;;;;0.10;0.10;;;;;;;6.74;100.00;99798.06;6119822;23;20579;-87
2023/03/22 03:26:00;;;;;;;1.52;0.93;;;;;;;6.69;100.00;99808.75;6121192;23;20080;-87
2023/03/22 03:29:11;;;;;;;0.10;0.10;;;;;;;6.64;100.00;99800.94;6121379;23;20018;-87
2023/03/22 03:32:15;;;;;;;0.10;0.10;;;;;;;6.57;100.00;99802.63;6093140;23;20014;-87
2023/03/22 03:34:48;;;;;;;0.15;0.15;;;;;;;6.53;100.00;99785.38;6121293;23;20026;-88
2023/03/22 03:37:35;;;;;;;0.28;0.25;;;;;;;6.52;100.00;99805.84;6117524;23;20402;-88
2023/03/22 03:40:11;;;;;;;0.22;0.22;;;;;;;6.49;100.00;99811.41;6095256;23;20030;-88
2023/03/22 03:42:40;;;;;;;0.75;0.75;;;;;;;6.42;100.00;99811.50;6143331;23;20088;-87
2023/03/22 03:45:07;;;;;;;0.43;0.43;;;;;;;6.39;100.00;99813.09;6143417;23;20346;-87
2023/03/22 03:47:33;;;;;;;1.00;0.38;;;;;;;6.44;100.00;99803.59;6093407;23;20449;-87
2023/03/22 03:49:59;;;;;;;0.13;0.13;;;;;;;6.45;100.00;99805.94;6119532;23;20093;-87
2023/03/22 03:52:25;;;;;;;3.00;1.67;;;;;;;6.48;100.00;99807.88;6121347;23;20013;-87
2023/03/22 03:54:51;;;;;;;0.35;0.35;;;;;;;6.49;100.00;99817.69;6096511;23;20017;-88
2023/03/22 03:57:23;;;;;;;0.97;0.97;;;;;;;6.45;100.00;99805.16;6144847;23;20022;-87
2023/03/22 03:59:49;;;;;;;0.68;0.68;;;;;;;6.42;100.00;99806.00;6096379;23;20389;-87
2023/03/22 04:02:27;;;;;;;0.55;0.55;;;;;;;6.37;100.00;99804.47;6094693;23;20017;-87
2023/03/22 04:04:57;;;;;;;4.05;1.05;;;;;;;6.31;100.00;99810.88;6144962;23;20014;-87
2023/03/22 04:07:22;;;;;;;0.25;0.25;;;;;;;6.00;100.00;99785.28;6119300;23;20435;-87
2023/03/22 04:09:48;;;;;;;0.00;0.00;;;;;;;6.17;100.00;99809.06;6095661;23;20096;-87
2023/03/22 04:12:24;;;;;;;0.20;0.20;;;;;;;6.18;100.00;99809.84;6095122;23;20350;-88
2023/03/22 04:15:11;;;;;;;0.13;0.13;;;;;;;6.18;100.00;99809.84;6145013;23;20072;-87
2023/03/22 04:17:38;;;;;;;0.20;0.20;;;;;;;6.17;100.00;99814.59;6119085;23;20058;-88
2023/03/22 04:20:06;;;;;;;0.00;0.00;;;;;;;6.21;100.00;99812.56;6142532;23;20041;-87
2023/03/22 04:22:37;;;;;;;0.20;0.20;;;;;;;6.15;100.00;99802.44;6113869;23;20022;-87
2023/03/22 04:25:10;;;;;;;0.10;0.10;;;;;;;6.09;100.00;99800.13;6117980;23;20024;-87
2023/03/22 04:27:39;;;;;;;0.50;0.50;;;;;;;6.13;100.00;99805.59;6141332;23;20022;-88
2023/03/22 04:30:17;;;;;;;1.75;1.65;;;;;;;6.14;100.00;99807.16;6093055;23;20021;-88
2023/03/22 04:33:05;;;;;;;0.10;0.10;;;;;;;6.15;100.00;99819.69;6097671;23;20362;-88
2023/03/22 04:36:04;;;;;;;0.10;0.10;;;;;;;6.08;100.00;99808.78;6092804;23;20029;-88
2023/03/22 04:38:38;;;;;;;1.33;0.98;;;;;;;6.04;100.00;99808.06;6094025;23;20029;-87
2023/03/22 04:41:05;;;;;;;0.30;0.30;;;;;;;6.03;100.00;99812.78;6093086;23;20343;-88
2023/03/22 04:43:39;;;;;;;0.32;0.32;;;;;;;6.12;100.00;99820.53;6119523;23;20413;-87
2023/03/22 04:46:08;;;;;;;0.60;0.60;;;;;;;6.10;100.00;99814.69;6092758;23;20014;-87
2023/03/22 04:48:41;;;;;;;0.73;0.73;;;;;;;6.14;100.00;99820.13;6118984;23;20100;-87
2023/03/22 04:51:10;;;;;;;0.73;0.70;;;;;;;6.21;100.00;99817.28;6142427;23;20081;-87
2023/03/22 04:53:42;;;;;;;2.55;2.30;;;;;;;6.30;100.00;99810.09;6118412;23;20002;-88
2023/03/22 04:56:11;;;;;;;6.43;1.58;;;;;;;6.39;100.00;99813.09;6119402;23;20029;-88
2023/03/22 04:58:41;;;;;;;2.17;1.67;;;;;;;6.39;100.00;99807.59;6117908;23;20018;-87
2023/03/22 05:01:08;;;;;;;1.02;0.93;;;;;;;6.45;100.00;99810.66;6142120;23;20037;-87
2023/03/22 05:03:38;;;;;;;4.63;1.17;;;;;;;6.44;100.00;99815.41;6116999;23;20014;-87
2023/03/22 05:06:06;;;;;;;0.32;0.32;;;;;;;6.51;100.00;99831.81;6142605;23;20024;-88
2023/03/22 05:08:41;;;;;;;0.35;0.35;;;;;;;6.40;100.00;99836.72;6093135;23;20014;-88
2023/03/22 05:11:09;;;;;;;0.30;0.30;;;;;;;6.32;100.00;99843.50;6093796;23;20014;-87
2023/03/22 05:13:36;;;;;;;0.22;0.22;;;;;;;6.27;100.00;99835.69;6093682;23;20002;-88
2023/03/22 05:16:03;;;;;;;0.47;0.47;;;;;;;6.28;100.00;99823.47;6118497;23;20457;-87
2023/03/22 05:18:41;;;;;;;0.63;0.63;;;;;;;6.30;100.00;99834.09;6142811;23;20032;-87
2023/03/22 05:21:14;;;;;;;0.68;0.68;;;;;;;6.33;100.00;99847.81;6094014;23;20050;-87
2023/03/22 05:23:41;;;;;;;0.22;0.22;;;;;;;6.41;100.00;99857.56;6141114;23;20348;-87
2023/03/22 05:26:14;;;;;;;0.60;0.47;;;;;;;6.44;100.00;99848.47;6118222;23;20018;-87
2023/03/22 05:28:43;;;;;;;0.50;0.50;;;;;;;6.57;100.00;99857.75;6140240;23;20037;-87
2023/03/22 05:31:27;;;;;;;0.85;0.32;;;;;;;6.57;100.00;99840.41;6091843;23;20017;-88
2023/03/22 05:34:00;;;;;;;1.15;1.08;;;;;;;6.64;100.00;99845.03;6140625;23;20470;-88
2023/03/22 05:36:28;;;;;;;2.63;0.90;;;;;;;6.76;100.00;99853.53;6117989;23;20006;-88
2023/03/22 05:39:21;;;;;;;0.30;0.30;;;;;;;6.76;100.00;99853.53;6094556;23;20086;-89
2023/03/22 05:41:48;;;;;;;0.25;0.20;;;;;;;6.89;100.00;99862.03;6140684;23;20052;-88
2023/03/22 05:44:14;;;;;;;0.10;0.10;;;;;;;6.98;100.00;99865.03;6093692;23;20014;-87
2023/03/22 05:46:49;;;;;;;0.30;0.30;;;;;;;6.94;100.00;99842.25;6116517;23;20101;-88
2023/03/22 05:49:41;;;;;;;0.93;0.93;;;;;;;7.11;100.00;99856.97;6116037;23;20076;-88
2023/03/22 05:52:07;;;;;;;0.65;0.65;;;;;;;7.10;100.00;99860.91;6116651;23;20343;-89
2023/03/22 05:54:50;;;;;;;0.20;0.20;;;;;;;7.19;100.00;99869.47;6093249;23;20021;-88
2023/03/22 05:57:16;;;;;;;0.10;0.10;;;;;;;7.29;100.00;99863.75;6093676;23;20028;-88
2023/03/22 05:59:42;;;;;;;0.20;0.20;;;;;;;7.33;100.00;99858.97;6118955;23;20057;-88
2023/03/22 06:02:14;;;;;;;0.47;0.43;;;;;;;7.40;100.00;99850.56;6116520;23;20021;-88
2023/03/22 06:04:43;;;;;;;0.25;0.25;;;;;;;7.50;100.00;99857.91;6069228;23;20501;-88
2023/03/22 06:07:14;;;;;;;0.65;0.65;;;;;;;7.63;100.00;99871.09;6141485;23;20006;-88
2023/03/22 06:09:44;;;;;;;0.80;0.35;;;;;;;7.67;100.00;99871.81;6114675;23;20369;-87
2023/03/22 06:12:15;;;;;;;0.90;0.90;;;;;;;7.69;100.00;99870.19;6094241;23;20018;-88
2023/03/22 06:14:48;;;;;;;0.75;0.75;;;;;;;7.78;100.00;99867.66;6120122;23;20097;-88
2023/03/22 06:17:40;;;;;;;5.72;1.23;;;;;;;7.96;100.00;99868.13;6082908;23;20564;-89
2023/03/22 06:20:11;;;;;;;1.17;0.75;;;;;;;7.92;100.00;99866.63;6116979;23;20022;-89
2023/03/22 06:22:40;;;;;;;0.38;0.38;;;;;;;8.09;100.00;99878.53;6093135;23;20032;-88
2023/03/22 06:25:07;;;;;;;0.32;0.32;;;;;;;8.12;100.00;99886.75;6089541;23;20025;-89
2023/03/22 06:27:40;;;;;;;0.73;0.73;;;;;;;8.20;100.00;99893.72;6118135;23;20129;-88
2023/03/22 06:30:06;;;;;;;0.40;0.40;;;;;;;8.25;100.00;99886.91;6096917;23;20509;-88
2023/03/22 06:32:41;;;;;;;0.90;0.25;;;;;;;8.33;100.00;99902.94;6117915;23;20465;-88
2023/03/22 06:35:07;;;;;;;1.08;1.02;;;;;;;8.25;100.00;99897.97;6096516;23;20018;-89
2023/03/22 06:37:33;;;;;;;2.95;1.60;;;;;;;8.14;100.00;99902.91;6118840;23;20010;-88
2023/03/22 06:39:59;;;;;;;0.30;0.30;;;;;;;8.07;100.00;99901.06;6072595;23;20029;-88
2023/03/22 06:42:25;;;;;;;1.10;0.95;;;;;;;8.04;100.00;99907.44;6094377;23;20780;-88
2023/03/22 06:45:01;;;;;;;0.65;0.65;;;;;;;8.05;100.00;99908.22;6143104;23;20013;-88
2023/03/22 06:47:33;;;;;;;0.40;0.40;;;;;;;8.14;100.00;99900.13;6093532;23;20125;-88
2023/03/22 06:50:04;;;;;;;0.65;0.65;;;;;;;8.31;100.00;99910.88;6129765;23;20049;-89
2023/03/22 06:52:59;;;;;;;1.42;1.33;;;;;;;8.39;100.00;99906.78;6083656;23;20108;-89
2023/03/22 06:55:25;;;;;;;0.40;0.40;;;;;;;8.60;100.00;99915.84;6094655;23;20108;-89
2023/03/22 06:57:51;;;;;;;1.88;1.77;;;;;;;8.61;100.00;99906.34;6119588;23;20022;-87
2023/03/22 07:00:17;;;;;;;0.55;0.55;;;;;;;8.76;100.00;99907.59;6096580;23;20020;-88
2023/03/22 07:02:42;;;;;;;1.02;0.75;;;;;;;8.92;100.00;99915.16;6143620;23;20018;-87
2023/03/22 07:05:22;;;;;;;1.50;0.93;;;;;;;9.11;100.00;99901.28;6096869;23;20018;-87
2023/03/22 07:07:47;;;;;;;1.85;1.00;;;;;;;9.25;100.00;99903.72;6121963;23;20029;-88
2023/03/22 07:10:13;;;;;;;0.60;0.60;;;;;;;9.44;100.00;99915.16;6120188;23;20018;-87
2023/03/22 07:12:39;;;;;;;0.73;0.70;;;;;;;9.58;100.00;99906.50;6120908;23;20359;-87
2023/03/22 07:15:10;;;;;;;2.67;0.68;;;;;;;9.84;100.00;99924.81;6122197;23;20018;-88
2023/03/22 07:17:46;;;;;;;0.98;0.85;;;;;;;9.88;100.00;99908.88;6141753;23;20065;-87
2023/03/22 07:20:12;;;;;;;0.20;0.20;;;;;;;10.08;100.00;99920.63;6120015;23;20026;-86
2023/03/22 07:22:39;;;;;;;8.30;0.98;;;;;;;10.20;100.00;99924.69;6072158;23;20026;-88
2023/03/22 07:25:05;;;;;;;56.10;2.83;;;;;;;10.07;100.00;99894.13;6120535;23;20068;-90
2023/03/22 07:27:32;;;;;;;1.02;0.73;;;;;;;10.14;100.00;99905.03;6095847;23;20022;-91
2023/03/22 07:29:58;;;;;;;0.40;0.40;;;;;;;10.19;100.00;99906.53;6095569;23;20342;-92
2023/03/22 07:32:24;;;;;;;0.25;0.25;;;;;;;10.38;100.00;99911.13;6095608;23;20072;-92
2023/03/22 07:35:05;;;;;;;0.93;0.90;;;;;;;10.43;100.00;99893.97;6096441;23;20366;-92
2023/03/22 07:37:34;;;;;;;1.70;1.20;;;;;;;10.60;100.00;99902.97;6120228;23;20022;-92
2023/03/22 07:40:03;;;;;;;1.55;1.45;;;;;;;10.81;100.00;99905.13;6073150;23;20014;-92
2023/03/22 07:42:30;;;;;;;0.88;0.88;;;;;;;10.96;100.00;99903.47;6119664;23;20037;-91
2023/03/22 07:45:21;;;;;;;1.20;1.17;;;;;;;11.30;100.00;99915.94;6096348;23;20022;-92
2023/03/22 07:48:05;;;;;;;0.32;0.32;;;;;;;11.38;100.00;99900.59;6121094;23;20040;-91
2023/03/22 07:50:55;;;;;;;0.32;0.32;;;;;;;11.50;100.00;99905.38;6140214;23;20072;-91
2023/03/22 07:53:23;;;;;;;0.63;0.63;;;;;;;11.67;100.00;99907.56;6120862;23;20022;-92
2023/03/22 07:55:48;;;;;;;1.58;0.82;;;;;;;11.86;100.00;99905.78;6072176;23;20017;-91
2023/03/22 07:58:14;;;;;;;6.22;2.22;;;;;;;11.87;100.00;99887.09;6093160;23;20014;-93
2023/03/22 08:00:43;;;;;;;0.90;0.88;;;;;;;11.77;100.00;99872.31;6102750;23;20385;-95
2023/03/22 08:03:28;;;;;;;1.65;1.55;;;;;;;12.02;100.00;99899.25;6105821;23;20101;-92
2023/03/22 08:06:05;;;;;;;0.10;0.10;;;;;;;12.35;100.00;99905.25;6119802;23;20088;-92
2023/03/22 08:08:35;;;;;;;1.15;0.60;;;;;;;12.73;100.00;99911.41;6117979;23;20029;-93
2023/03/22 08:11:05;;;;;;;0.80;0.52;;;;;;;12.60;92.72;99899.56;6093875;23;20021;-89
2023/03/22 08:13:32;;;;;;;0.50;0.50;;;;;;;12.74;94.74;99887.88;6092246;23;20080;-91
2023/03/22 08:16:01;;;;;;;1.15;1.05;;;;;;;13.00;92.62;99897.63;6119892;23;20002;-91
2023/03/22 08:18:29;;;;;;;3.92;2.28;;;;;;;13.31;91.86;99911.56;6144213;23;20034;-91
2023/03/22 08:20:58;;;;;;;1.35;1.05;;;;;;;13.45;89.85;99913.78;6144229;23;20018;-91
2023/03/22 08:23:36;;;;;;;0.85;0.82;;;;;;;13.61;88.05;99920.31;6095666;23;20538;-91
2023/03/22 08:26:26;;;;;;;0.85;0.82;;;;;;;13.51;90.09;99905.56;6098984;23;20068;-91
2023/03/22 08:28:55;;;;;;;1.30;1.20;;;;;;;14.00;87.41;99914.66;6095328;23;20018;-91
2023/03/22 08:31:21;;;;;;;3.17;1.65;;;;;;;14.10;83.94;99889.56;6094435;23;20018;-91
2023/03/22 08:33:48;;;;;;;0.55;0.55;;;;;;;14.45;80.83;99888.03;6095382;23;20014;-91
2023/03/22 08:36:16;;;;;;;1.50;1.33;;;;;;;14.82;78.93;99911.84;6095151;23;20427;-92
2023/03/22 08:38:47;;;;;;;;;;;;;;;14.94;75.97;99912.91;6095960;23;20029;-91
2023/03/22 08:41:16;;;;;;;0.25;0.25;;;;;;;14.98;75.48;99887.59;6096462;23;19915;-92
2023/03/22 08:43:42;;;;;;;0.38;0.38;;;;;;;15.58;74.67;99890.31;6095858;23;20002;-91
2023/03/22 08:46:08;;;;;;;1.35;1.20;;;;;;;16.04;70.40;99901.97;6095529;23;20084;-92
2023/03/22 08:48:36;;;;;;;1.45;1.35;;;;;;;16.07;64.97;99896.19;6119309;23;20005;-90
2023/03/22 08:51:20;;;;;;;1.05;0.95;;;;;;;16.28;64.77;99889.50;6143358;23;20065;-89
2023/03/22 08:54:09;;;;;;;0.60;0.60;;;;;;;16.03;61.79;99880.84;6100956;23;20018;-89
2023/03/22 08:56:53;;;;;;;1.20;0.98;;;;;;;16.26;63.09;99880.78;6121929;23;20024;-89
2023/03/22 08:59:36;;;;;;;0.70;0.70;;;;;;;16.31;59.63;99899.72;6144194;23;20404;-86
2023/03/22 09:02:22;;;;;;;1.02;0.80;;;;;;;15.86;60.12;99903.66;6109324;23;20402;-88
2023/03/22 09:04:48;;;;;;;1.20;1.05;;;;;;;15.77;63.42;99895.31;6095699;23;20014;-87
2023/03/22 09:07:16;;;;;;;1.13;0.68;;;;;;;15.53;61.79;99897.31;6121018;23;20060;-87
2023/03/22 09:09:46;;;;;;;1.10;1.10;;;;;;;15.80;64.08;99907.59;6096913;23;20037;-87
2023/03/22 09:12:12;;;;;;;0.80;0.57;;;;;;;16.08;62.76;99903.34;6095045;23;20048;-87
2023/03/22 09:14:38;;;;;;;1.25;0.68;;;;;;;16.25;59.42;99886.88;6118935;23;20447;-87
2023/03/22 09:17:04;;;;;;;0.47;0.47;;;;;;;16.43;58.01;99903.50;6095750;23;20092;-87
2023/03/22 09:19:30;;;;;;;0.85;0.85;;;;;;;16.42;58.07;99893.56;6144093;23;20081;-87
2023/03/22 09:21:56;;;;;;;0.73;0.73;;;;;;;16.69;57.87;99881.38;6071588;23;20042;-87
2023/03/22 09:24:36;;;;;;;3.20;0.80;;;;;;;16.99;56.27;99884.91;6094458;23;20018;-88
2023/03/22 09:27:03;;;;;;;1.40;1.30;;;;;;;17.12;55.97;99888.97;6121019;23;20068;-87
2023/03/22 09:29:29;;;;;;;3.55;1.02;;;;;;;16.97;56.37;99888.22;6121755;23;20018;-88
2023/03/22 09:31:55;;;;;;;0.80;0.70;;;;;;;17.18;56.25;99886.25;6121187;23;20081;-88
2023/03/22 09:34:25;;;;;;;0.82;0.82;;;;;;;16.85;55.17;99896.91;6096508;23;20466;-88
2023/03/22 09:36:52;;;;;;;0.28;0.20;;;;;;;16.53;54.78;99874.19;6097396;23;20014;-88
2023/03/22 09:39:21;;;;;;;1.02;0.98;;;;;;;16.82;54.72;99900.69;6074364;23;20469;-90
2023/03/22 09:41:56;;;;;;;1.08;0.90;;;;;;;17.02;53.32;99901.56;6122079;23;20014;-90
2023/03/22 09:44:35;;;;;;;4.47;1.60;;;;;;;16.96;54.49;99892.28;6121501;23;20100;-91
2023/03/22 09:47:04;;;;;;;1.08;0.40;;;;;;;16.53;58.63;99885.38;6097309;23;20454;-91
2023/03/22 09:49:37;;;;;;;0.20;0.20;;;;;;;16.36;56.84;99877.94;6072639;23;20022;-92
2023/03/22 09:52:11;;;;;;;0.28;0.28;;;;;;;16.93;54.77;99898.84;6096155;23;20018;-92
2023/03/22 09:54:37;;;;;;;;;;;;;;;16.92;52.59;99888.13;6098163;23;20018;-92
2023/03/22 09:57:15;;;;;;;0.60;0.40;;;;;;;17.22;55.10;99886.84;6096925;23;20253;-91
2023/03/22 09:59:50;;;;;;;0.38;0.38;;;;;;;17.37;53.29;99887.56;6096281;23;20454;-91
2023/03/22 10:02:18;;;;;;;1.55;0.55;;;;;;;17.64;53.63;99873.19;6096747;23;20096;-92
2023/03/22 10:04:56;;;;;;;0.68;0.55;;;;;;;17.58;52.36;99875.16;6097164;23;20102;-90
2023/03/22 10:07:48;;;;;;;4.32;1.13;;;;;;;17.67;50.43;99869.41;6121108;23;20042;-92
2023/03/22 10:10:17;;;;;;;0.45;0.45;;;;;;;17.89;52.04;99870.97;6106454;23;20092;-92
2023/03/22 10:13:06;;;;;;;0.47;0.47;;;;;;;17.99;48.98;99858.34;6096807;23;20006;-94
2023/03/22 10:15:41;;;;;;;0.60;0.60;;;;;;;18.00;48.88;99871.09;6144341;23;20014;-93
2023/03/22 10:18:12;;;;;;;0.40;0.40;;;;;;;18.36;48.20;99866.94;6145667;23;20069;-93
2023/03/22 10:20:45;;;;;;;0.50;0.38;;;;;;;18.52;46.71;99867.09;6145928;23;20014;-93
2023/03/22 10:23:25;;;;;;;0.20;0.20;;;;;;;18.65;45.32;99872.34;6121245;23;20057;-93
2023/03/22 10:25:51;;;;;;;0.30;0.28;;;;;;;18.68;46.69;99856.53;6097017;23;20476;-94
2023/03/22 10:28:20;;;;;;;0.65;0.65;;;;;;;18.53;44.27;99845.41;6096807;23;20006;-93
2023/03/22 10:30:52;;;;;;;0.20;0.20;;;;;;;18.42;44.06;99846.06;6096656;23;20010;-93
2023/03/22 10:33:27;;;;;;;0.10;0.10;;;;;;;18.52;45.20;99849.50;6097479;23;20477;-93
2023/03/22 10:35:54;;;;;;;0.20;0.20;;;;;;;18.50;45.89;99854.81;6120775;23;20014;-93
2023/03/22 10:38:24;;;;;;;1.95;0.60;;;;;;;18.61;46.31;99866.16;6120477;23;20025;-93
2023/03/22 10:40:52;;;;;;;0.40;0.40;;;;;;;18.66;46.31;99848.59;6096169;23;20062;-93
2023/03/22 10:43:31;;;;;;;0.38;0.30;;;;;;;18.74;45.94;99837.69;6146439;23;20030;-94
2023/03/22 10:45:57;;;;;;;0.98;0.93;;;;;;;18.82;46.08;99861.25;6145393;23;20115;-93
2023/03/22 10:48:32;;;;;;;1.15;0.65;;;;;;;18.86;45.91;99862.56;6097518;23;20009;-93
2023/03/22 10:50:58;;;;;;;0.63;0.63;;;;;;;18.73;45.48;99841.75;6096320;23;20018;-93
2023/03/22 10:53:44;;;;;;;0.10;0.10;;;;;;;18.98;44.43;99832.50;6121827;23;20073;-93
2023/03/22 10:56:17;;;;;;;0.65;0.57;;;;;;;18.81;45.73;99840.03;6145964;23;20024;-93
2023/03/22 10:58:43;;;;;;;0.70;0.68;;;;;;;19.08;44.71;99833.88;6144911;23;20018;-93
2023/03/22 11:01:27;;;;;;;0.93;0.88;;;;;;;19.27;44.20;99840.66;6144927;23;20126;-93
2023/03/22 11:04:14;;;;;;;1.95;0.68;;;;;;;19.72;44.71;99838.13;6146150;23;20018;-94
2023/03/22 11:06:49;;;;;;;0.22;0.22;;;;;;;19.89;43.55;99842.53;6072572;23;20013;-93
2023/03/22 11:09:17;;;;;;;0.95;0.88;;;;;;;20.10;43.15;99803.69;6096953;23;20390;-93
2023/03/22 11:12:00;;;;;;;0.93;0.80;;;;;;;20.35;42.67;99819.66;6121040;23;20029;-94
2023/03/22 11:14:35;;;;;;;0.75;0.65;;;;;;;20.63;43.53;99833.00;6096483;23;20081;-94
2023/03/22 11:17:04;;;;;;;1.10;1.00;;;;;;;20.78;42.95;99825.84;6119342;23;20069;-94
2023/03/22 11:19:35;;;;;;;1.35;0.93;;;;;;;20.35;41.47;99785.84;6122584;23;20522;-94
2023/03/22 11:22:05;;;;;;;1.63;1.17;;;;;;;20.56;42.52;99794.06;6096489;23;20022;-93
2023/03/22 11:24:32;;;;;;;3.15;1.83;;;;;;;20.72;41.88;99779.19;6144566;23;20289;-93
2023/03/22 11:27:18;;;;;;;0.47;0.47;;;;;;;19.65;43.52;99807.66;6121484;23;20014;-92
2023/03/22 11:29:49;;;;;;;0.40;0.40;;;;;;;19.21;45.00;99786.41;6122828;23;20037;-94
2023/03/22 11:32:35;;;;;;;1.35;0.98;;;;;;;19.58;45.74;99808.09;6120143;23;20024;-92
2023/03/22 11:35:09;;;;;;;0.77;0.55;;;;;;;19.35;45.66;99818.44;6096436;23;20461;-93
2023/03/22 11:37:46;;;;;;;0.68;0.68;;;;;;;19.46;46.06;99788.38;6121197;23;20021;-95
2023/03/22 11:40:17;;;;;;;1.10;1.10;;;;;;;19.67;45.37;99805.84;6145380;23;20013;-92
2023/03/22 11:42:44;;;;;;;0.75;0.57;;;;;;;19.90;44.87;99787.00;6096770;23;20453;-96
2023/03/22 11:45:15;;;;;;;1.77;1.25;;;;;;;20.20;43.63;99796.56;6097773;23;20430;-93
2023/03/22 11:47:41;;;;;;;0.88;0.75;;;;;;;19.95;44.20;99758.09;6120840;23;20472;-92
2023/03/22 11:50:09;;;;;;;1.63;0.93;;;;;;;20.10;43.41;99781.16;6145125;23;20046;-93
2023/03/22 11:52:37;;;;;;;1.02;0.93;;;;;;;20.04;44.02;99774.75;6121285;23;20025;-93
2023/03/22 11:55:03;;;;;;;0.95;0.85;;;;;;;19.75;44.53;99778.78;6121266;23;20093;-93
2023/03/22 11:57:30;;;;;;;1.75;0.60;;;;;;;19.67;44.52;99765.69;6096533;23;20388;-94
2023/03/22 12:00:06;;;;;;;0.60;0.60;;;;;;;19.81;44.22;99759.88;6120749;23;20426;-93